• Join FlightAware (Why Join?)
  • Login
  • US Flag 
04:51AM EDT


 

Airport Tracker/Info


-or-


 

Live Flight TrackerFlight Track Log ✈ CSN6878 ✈ 30-Aug-2013 ✈ ZWKC / KCA - ZWWW / URC

Flight Track Log - Related Links

Times and Time Zones

All times are in EDT time to prevent confusion due to time zone crossing. See the CSN6878 flight status page for this flight to view local times or setup timezone preferences in your user account.

Time Position Orientation Groundspeed Altitude Reporting Facility
EDT Latitude Longitude Course Direction KTS MPH feet Rate Location/Type
11:27AM 41.8743 83.2859 55° Northeast  Level Estimated
11:28AM 41.9522 83.4359 55° Northeast  Level Estimated
11:29AM 42.0298 83.5863 55° Northeast  Level Estimated
11:30AM 42.1073 83.7371 55° Northeast  Level Estimated
11:31AM 42.1845 83.8882 55° Northeast  Level Estimated
11:32AM 42.2616 84.0397 55° Northeast  Level Estimated
11:33AM 42.3384 84.1916 56° Northeast  Level Estimated
11:34AM 42.4151 84.3438 56° Northeast  Level Estimated
11:35AM 42.4915 84.4964 56° Northeast  Level Estimated
11:36AM 42.5677 84.6494 56° Northeast  Level Estimated
11:37AM 42.6438 84.8028 56° Northeast  Level Estimated
11:38AM 42.7196 84.9565 56° Northeast  Level Estimated
11:39AM 42.7953 85.1106 56° Northeast  Level Estimated
11:40AM 42.8707 85.2651 56° Northeast  Level Estimated
11:41AM 42.9459 85.4200 56° Northeast  Level Estimated
11:42AM 43.0209 85.5752 57° Northeast  Level Estimated
11:43AM 43.0957 85.7308 57° Northeast  Level Estimated
11:44AM 43.1703 85.8868 57° Northeast  Level Estimated
11:45AM 43.2447 86.0432 57° Northeast  Level Estimated
11:46AM 43.3188 86.2000 57° Northeast  Level Estimated
11:47AM 43.3928 86.3571 57° Northeast  Level Estimated
11:48AM 43.4665 86.5147 57° Northeast  Level Estimated
11:49AM 43.5400 86.6726 57° Northeast  Level Estimated
11:50AM 43.6133 86.8309 57° Northeast  Level Estimated
11:51AM 43.6864 86.9896 57° Northeast  Level Estimated
11:52AM 43.7592 87.1486 58° Northeast  Level Estimated
11:53AM 43.8318 87.3081 58° Northeast  Level Estimated
11:54AM 43.9043 87.4679 58° Northeast  Level Estimated
11:55AM 43.9071 87.4742 58° Northeast  Level Estimated
11:56AM 43.9071 87.4742 144° Southeast  Level Estimated
11:57AM 43.9071 87.4742 144° Southeast  Level Estimated
11:58AM 43.9071 87.4742 144° Southeast  Level Estimated
11:59AM 43.9071 87.4742 144° Southeast  Level Estimated
12:00PM 43.9071 87.4742 144° Southeast  Level Estimated
12:01PM 43.9071 87.4742 144° Southeast  Level Estimated
12:02PM 43.9071 87.4742 144° Southeast  Level Estimated
12:03PM 43.9071 87.4742 144° Southeast  Level Estimated
12:04PM 43.9071 87.4742 144° Southeast  Level Estimated
12:05PM 43.9071 87.4742 144° Southeast  Level Estimated
12:06PM 43.9071 87.4742 144° Southeast  Level Estimated
12:07PM 43.9071 87.4742 144° Southeast  Level Estimated
12:08PM 43.9071 87.4742 144° Southeast  Level Estimated
12:09PM 43.9071 87.4742 144° Southeast  Level Estimated
12:10PM 43.9071 87.4742 144° Southeast  Level Estimated